• Join FlightAware (Why Join?)
  • Login
  • US Flag 
11:50AM EDT


 

Airport Tracker/Info


-or-


 

Live Flight TrackerFlight Track Log ✈ EJA583 ✈ 09-Jul-2013 ✈ KDAL - KDTS

Flight Track Log - Related Links

Times and Time Zones

All times are in EDT time to prevent confusion due to time zone crossing. See the EJA583 flight status page for this flight to view local times or setup timezone preferences in your user account.

Time Position Orientation Groundspeed Altitude Reporting Facility
EDT Latitude Longitude Course Direction KTS MPH feet Rate Location/Type
02:03PM 32.8333 -96.8333 134° Southeast 180 207 1,600  Level Dallas / Fort Worth TRACON
02:04PM 32.7667 -96.7500 134° Southeast 243 280 6,600 2,820 Climbing Dallas / Fort Worth TRACON
02:06PM 32.6953 -96.6456 129° Southeast 274 315 10,800 2,580 Climbing Fort Worth Center
02:07PM 32.6489 -96.5697 126° Southeast 274 315 13,700 2,460 Climbing Fort Worth Center
02:08PM 32.7092 -96.5147 38° Northeast 186 214 15,800 1,740 Climbing Fort Worth Center
02:09PM 32.7439 -96.4256 65° Northeast 253 291 17,200 1,320 Climbing Fort Worth Center
02:10PM 32.7556 -96.3117 83° East 319 367 18,500 1,320 Climbing Fort Worth Center
02:11PM 32.7397 -96.1958 99° East 339 390 19,900 1,680 Climbing Fort Worth Center
02:12PM 32.7219 -96.0825 101° East 356 410 21,900 1,680 Climbing Fort Worth Center
02:13PM 32.7019 -95.9667 102° East 350 403 23,300 1,260 Climbing Fort Worth Center
02:14PM 32.6817 -95.8511 102° East 350 403 24,500 1,080 Climbing Fort Worth Center
02:15PM 32.6656 -95.7328 99° East 355 409 25,500 960 Climbing Fort Worth Center
02:16PM 32.6556 -95.6097 95° East 360 414 26,500 1,020 Climbing Fort Worth Center
02:18PM 32.6742 -95.4211 83° East 381 438 28,100 960 Climbing Houston Center
02:19PM 32.6819 -95.2958 86° East 382 440 29,100 960 Climbing Houston Center
02:20PM 32.6911 -95.1700 85° East 381 438 30,100 960 Climbing Houston Center
02:21PM 32.6983 -95.0431 86° East 384 442 31,100 1,020 Climbing Houston Center
02:22PM 32.7083 -94.8903 86° East 385 443 32,300 1,020 Climbing Houston Center
02:23PM 32.7044 -94.7672 92° East 379 436 33,300 960 Climbing Houston Center
02:24PM 32.6639 -94.6458 112° Southeast 395 455 34,300 960 Climbing Houston Center
02:25PM 32.6231 -94.5267 112° Southeast 390 449 35,400 960 Climbing Houston Center
02:26PM 32.5825 -94.4044 111° Southeast 395 455 36,400 960 Climbing Houston Center
02:27PM 32.5464 -94.2803 109° East 397 457 37,400 960 Climbing Houston Center
02:28PM 32.5106 -94.1578 109° East 394 453 38,400 1,020 Climbing Houston Center
02:29PM 32.4675 -94.0094 109° East 395 455 39,600 1,020 Climbing Houston Center
02:30PM 32.4317 -93.8869 109° East 393 452 40,600 660 Climbing Houston Center
02:31PM 32.3922 -93.7650 111° Southeast 385 443 41,000 180 Climbing Fort Worth Center
02:32PM 32.3572 -93.6408 108° East 385 443 41,000  Level Fort Worth Center
02:34PM 32.2800 -93.3739 109° East 392 451 41,000  Level Houston Center
02:35PM 32.2442 -93.2539 109° East 390 449 41,000  Level Houston Center
02:36PM 32.2086 -93.1342 109° East 386 444 41,000  Level Houston Center
02:37PM 32.1717 -93.0119 110° East 392 451 41,000  Level Houston Center
02:38PM 32.1353 -92.8922 110° East 389 448 41,000  Level Houston Center
02:39PM 32.0997 -92.7714 109° East 389 448 41,000  Level Houston Center
02:40PM 32.0631 -92.6525 110° East 383 441 41,000  Level Houston Center
02:42PM 32.0192 -92.5083 110° East 388 447 41,000  Level Houston Center
02:43PM 31.9819 -92.3897 110° East 387 445 41,000  Level Houston Center
02:44PM 31.9458 -92.2700 110° East 388 447 41,000  Level Houston Center
02:45PM 31.9092 -92.1514 110° East 387 445 41,000  Level Houston Center
02:46PM 31.8719 -92.0317 110° East 387 445 41,000  Level Houston Center
02:47PM 31.8336 -91.9100 110° East 391 450 41,000  Level Houston Center
02:48PM 31.7892 -91.7667 110° East 390 449 41,000  Level Houston Center
02:49PM 31.7517 -91.6478 110° East 388 447 41,000  Level Houston Center
02:50PM 31.7139 -91.5283 110° East 390 449 41,000  Level Houston Center
02:51PM 31.6756 -91.4075 110° East 393 452 41,000  Level Houston Center
02:52PM 31.6386 -91.2889 110° East 389 448 41,000  Level Houston Center
02:53PM 31.6000 -91.1697 111° Southeast 389 448 41,000  Level Houston Center
02:54PM 31.5597 -91.0450 111° Southeast 390 449 41,000  Level Houston Center
02:55PM 31.5228 -90.9264 110° East 389 448 41,000  Level Houston Center
02:56PM 31.4833 -90.8094 112° Southeast 387 445 41,000 -60 Level Houston Center
02:57PM 31.4381 -90.6672 110° East 388 447 40,900 -480 Descending Houston Center
02:58PM 31.4028 -90.5500 109° East 384 442 40,100 -900 Descending Houston Center
02:59PM 31.3569 -90.4317 114° Southeast 395 455 39,100 -540 Descending Houston Center
03:00PM 31.3117 -90.3158 115° Southeast 393 452 39,000 -60 Descending Houston Center
03:01PM 31.2661 -90.1992 115° Southeast 395 455 39,000  Level Houston Center
03:02PM 31.2408 -90.0747 103° East 393 452 39,000 -600 Level Houston Center
03:03PM 31.2108 -89.9267 103° East 388 447 37,800 -1,080 Descending Houston Center
03:05PM 31.1856 -89.7787 101° East  Level FlightAware Approximate
03:05PM 31.1636 -89.6819 101° East 385 443 35,800  Level Houston Center
03:06PM 31.1397 -89.5586 103° East 387 445 34,700 -1,020 Descending Houston Center
03:07PM 31.1147 -89.4317 103° East 398 458 33,700 -1,020 Descending Houston Center
03:08PM 31.0892 -89.3017 103° East 406 467 32,700 -1,020 Descending Houston Center
03:09PM 31.0631 -89.1722 103° East 408 470 31,600 -840 Descending Houston Center
03:10PM 31.0308 -89.0158 103° East 410 472 31,000 -300 Descending Houston Center
03:12PM 31.0042 -88.8881 104° East 410 472 31,000  Level Houston Center
03:13PM 30.9753 -88.7578 104° East 414 476 31,000 -240 Level Houston Center
03:14PM 30.9494 -88.6306 103° East 408 470 30,600 -780 Descending Houston Center
03:15PM 30.9228 -88.4953 103° East 415 478 29,500 -1,020 Descending Houston Center
03:16PM 30.8944 -88.3636 104° East 419 482 28,500 -1,080 Descending Houston Center
03:17PM 30.8606 -88.2014 104° East 430 495 27,300 -1,080 Descending Houston Center
03:18PM 30.8331 -88.0658 103° East 431 496 26,300 -1,020 Descending Houston Center
03:19PM 30.8050 -87.9308 104° East 430 495 25,300 -1,020 Descending Houston Center
03:20PM 30.7767 -87.7969 104° East 426 490 24,300 -660 Descending Houston Center
03:21PM 30.7714 -87.6503 92° East 424 488 24,000 -780 Descending Houston Center
03:22PM 30.7764 -87.5492 87° East 419 482 22,900 -1,620 Descending Jacksonville Center
03:23PM 30.7853 -87.4167 86° East 405 466 21,200 -1,800 Descending Jacksonville Center
03:24PM 30.7919 -87.2886 86° East 399 459 19,400 -1,680 Descending Jacksonville Center
03:25PM 30.8003 -87.1633 86° East 394 453 17,900 -1,740 Descending Jacksonville Center
03:26PM 30.8086 -87.0406 85° East 389 448 16,000 -1,800 Descending Jacksonville Center
03:27PM 30.8167 -86.9197 86° East 377 434 14,300 -1,740 Descending Jacksonville Center
03:28PM 30.8222 -86.8039 87° East 370 426 12,600 -1,920 Descending Jacksonville Center
03:29PM 30.7875 -86.7108 113° Southeast 314 361 10,500 -1,800 Descending Jacksonville Center
03:30PM 30.7153 -86.6811 161° South 282 325 9,100 -1,680 Descending Jacksonville Center
03:31PM 30.6564 -86.6281 142° Southeast 276 318 7,200 -1,800 Descending Jacksonville Center
03:32PM 30.6081 -86.5658 132° Southeast 265 305 5,500 -1,860 Descending Jacksonville Center
03:33PM 30.5639 -86.5111 133° Southeast 250 288 3,500 -1,320 Descending Jacksonville Center
03:34PM 30.5061 -86.4825 157° South 230 265 2,900 -840 Descending Jacksonville Center
03:35PM 30.4539 -86.4878 185° South 201 231 1,900 -1,020 Descending Jacksonville Center